Nearby METAR Reports

 

KSJC - San Jose, California, USA
Distance from station: NO 14km
Updated: 21-10-2020 07:53
Helder
Helder
 Wind van calm
Wind: Kalm
Temperatuur: 19°C
Dauwpunt: 10°C
Vochtigheid: 56%
Barometer: 1010.5 hPa
Clouds: Helder
Visibility: 16 km
2020/10/21 05:53 KSJC 210553Z 00000KT 10SM CLR 19/10 A2984 RMK AO2 SLP103 T01890100 10267 20189 51002
KNUQ - Moffett Nas/Mtn, California, USA
Distance from station: N 14km
Updated: 21-10-2020 08:30
Meestal bewolkt
Meestal bewolkt
 Wind van calm
Wind: Kalm
Temperatuur: 17°C
Dauwpunt: 12°C
Vochtigheid: 73%
Barometer: 1010.5 hPa
Clouds: Meestal bewolkt
Visibility: 16 km
Cloud details: Meestal bewolkt 610 m
2020/10/21 06:30 KNUQ 210630Z AUTO 00000KT 10SM BKN020 17/12 A2984 RMK AO2
 
KPAO - Palo Alto, California, USA
Distance from station: NNW 23km
Updated: 21-10-2020 01:47
NOT Current
Helder
Helder
 Wind van N
Wind: N 11 km/h
Temperatuur: 24°C
Dauwpunt: 16°C
Vochtigheid: 61%
Barometer: 1009.8 hPa
Clouds: Helder
Visibility: 16 km
2020/10/20 23:47 KPAO 202347Z 35006KT 10SM SKC 24/16 A2982
KRHV - San Jose/Reid, California, USA
Distance from station: ONO 19km
Updated: 21-10-2020 06:47
NOT Current
Helder
Helder
 Wind van calm
Wind: Kalm
Temperatuur: 20°C
Dauwpunt: 9°C
Vochtigheid: 49%
Barometer: 1010.8 hPa
Clouds: Helder
Visibility: 16 km
2020/10/21 04:47 KRHV 210447Z 00000KT 10SM SKC 20/09 A2985 RMK LAST
 
KOAK - Oakland, California, USA
Distance from station: NNW 50km
Updated: 21-10-2020 07:53
Helder
Helder
 Wind van NNO
Wind: NNO 6 km/h
Temperatuur: 17°C
Dauwpunt: 12°C
Vochtigheid: 73%
Barometer: 1010.8 hPa
Clouds: Helder
Visibility: 16 km
2020/10/21 05:53 KOAK 210553Z 02003KT 10SM CLR 17/12 A2985 RMK AO2 SLP106 T01670117 10272 20161 50003
KSQL - San Carlos Airpo, California, USA
Distance from station: NW 34km
Updated: 21-10-2020 08:35
Helder
Helder
 Wind van calm
Wind: Kalm
Temperatuur: 17°C
Dauwpunt: 10°C
Vochtigheid: 64%
Barometer: 1010.8 hPa
Clouds: Helder
Visibility: 16 km
2020/10/21 06:35 KSQL 210635Z AUTO 00000KT 10SM CLR 17/10 A2985 RMK AO2
 
KSFO - San Francisco, California, USA
Distance from station: NW 49km
Updated: 21-10-2020 07:56
Helder
Helder
 Wind van WNW
Wind: WNW 9 km/h
Temperatuur: 16°C
Dauwpunt: 11°C
Vochtigheid: 72%
Barometer: 1010.5 hPa
Clouds: Helder
Visibility: 16 km
2020/10/21 05:56 KSFO 210556Z 29005KT 10SM CLR 16/11 A2984 RMK AO2 SLP103 T01560106 10239 20150 50005
KE16 - San Martin, California, USA
Distance from station: OZO 43km
Updated: 21-10-2020 08:10

 Wind van calm
Wind: Kalm
Temperatuur: 16°C
Dauwpunt: 9°C
Vochtigheid: 63%
Barometer: 1011.5 hPa
Visibility: 16 km
2020/10/21 06:10 KE16 210610Z AUTO 00000KT 10SM 16/09 A2987 RMK AO2 PWINO PNO
 
KWVI - Watsonville, California, USA
Distance from station: ZZO 44km
Updated: 21-10-2020 07:53
Helder
Helder
 Wind van calm
Wind: Kalm
Temperatuur: 10°C
Dauwpunt: 10°C
Vochtigheid: 100%
Barometer: 1011.2 hPa
Clouds: Helder
Visibility: 16 km
2020/10/21 05:53 KWVI 210553Z AUTO 00000KT 10SM CLR 10/10 A2986 RMK AO2 SLP112 T01000100 10172 20100 58001
KHAF - Half Moon Bay, California, USA
Distance from station: WNW 50km
Updated: 21-10-2020 08:35
Gedeeltelijk bewolkt
Gedeeltelijk bewolkt
 Wind van calm
Wind: Kalm
Temperatuur: 8°C
Dauwpunt: 7°C
Vochtigheid: 93%
Barometer: 1011.2 hPa
Clouds: Gedeeltelijk bewolkt
Visibility: 16 km
Cloud details: Gedeeltelijk bewolkt 122 m
2020/10/21 06:35 KHAF 210635Z AUTO 00000KT 10SM SCT004 08/07 A2986 RMK AO2
 
KHWD - Hayward, California, USA
Distance from station: N 44km
Updated: 21-10-2020 07:54
Helder
Helder
 Wind van calm
Wind: Kalm
Temperatuur: 18°C
Dauwpunt: 12°C
Vochtigheid: 68%
Barometer: 1010.5 hPa
Clouds: Helder
Visibility: 16 km
2020/10/21 05:54 KHWD 210554Z AUTO 00000KT 10SM CLR 18/12 A2984 RMK AO2 SLP113 T01780122 10278 20172 51004
KLVK - Livermore, California, USA
Distance from station: NNO 51km
Updated: 21-10-2020 07:53
Helder
Helder
 Wind van ONO
Wind: ONO 7 km/h
Temperatuur: 17°C
Dauwpunt: 6°C
Vochtigheid: 49%
Barometer: 1010.5 hPa
Clouds: Helder
Visibility: 16 km
2020/10/21 05:53 KLVK 210553Z AUTO 07004KT 10SM CLR 17/06 A2984 RMK AO2 SLP101 T01670056 10311 20167 53004